Time;durP1;ratioP1;P1;durP2;ratioP2;P2;SDS_P1;SDS_P2;PMS_P1;PMS_P2;Temp;Humidity;BMP_temperature;BMP_pressure;BME280_temperature;BME280_humidity;BME280_pressure;Samples;Min_cycle;Max_cycle;Signal;HPM_P1;HPM_P2
2022/04/15 00:01:02;;;;;;;15.67;14.37;;;;;;;11.50;100.00;97417.47;5013209;28;20291;-56
2022/04/15 00:03:31;;;;;;;16.47;14.77;;;;;;;11.49;100.00;97422.97;5005546;28;20315;-54
2022/04/15 00:05:59;;;;;;;17.70;15.83;;;;;;;11.47;100.00;97415.19;5009855;28;20224;-54
2022/04/15 00:08:28;;;;;;;17.07;15.53;;;;;;;11.36;100.00;97420.94;4967998;28;20291;-55
2022/04/15 00:10:57;;;;;;;16.70;15.27;;;;;;;11.33;100.00;97424.78;5009434;28;20686;-56
2022/04/15 00:13:32;;;;;;;16.33;15.00;;;;;;;11.29;100.00;97428.81;4981977;28;20251;-55
2022/04/15 00:16:01;;;;;;;18.33;16.63;;;;;;;11.30;100.00;97422.50;5009366;28;20204;-55
2022/04/15 00:18:31;;;;;;;17.37;15.87;;;;;;;11.26;100.00;97427.34;5002742;28;20295;-55
2022/04/15 00:20:59;;;;;;;17.70;16.20;;;;;;;11.21;100.00;97440.34;5012479;28;20295;-53
2022/04/15 00:23:28;;;;;;;18.50;16.80;;;;;;;11.15;100.00;97449.84;4975601;28;20232;-52
2022/04/15 00:25:56;;;;;;;18.13;16.10;;;;;;;11.18;100.00;97446.00;5005461;28;20730;-54
2022/04/15 00:28:25;;;;;;;19.20;17.30;;;;;;;11.07;100.00;97454.38;4988065;28;20322;-54
2022/04/15 00:30:54;;;;;;;18.97;17.27;;;;;;;11.07;100.00;97446.44;5006818;28;20268;-55
2022/04/15 00:33:22;;;;;;;18.33;16.70;;;;;;;11.04;100.00;97454.75;5006608;28;20297;-51
2022/04/15 00:35:52;;;;;;;17.83;16.13;;;;;;;11.02;100.00;97451.47;5007111;28;20289;-55
2022/04/15 00:38:20;;;;;;;17.93;16.37;;;;;;;11.05;100.00;97451.94;5005848;28;20276;-56
2022/04/15 00:40:48;;;;;;;18.93;16.03;;;;;;;11.04;100.00;97445.00;4969117;28;20607;-56
2022/04/15 00:43:16;;;;;;;19.23;17.43;;;;;;;11.05;100.00;97443.97;5007600;28;20228;-55
2022/04/15 00:45:47;;;;;;;18.73;17.00;;;;;;;11.04;100.00;97446.81;4988194;28;20294;-57
2022/04/15 00:48:16;;;;;;;18.33;16.83;;;;;;;11.00;100.00;97449.81;5003015;28;20204;-54
2022/04/15 00:50:45;;;;;;;18.00;16.20;;;;;;;11.00;100.00;97441.84;5008747;28;20204;-54
2022/04/15 00:53:17;;;;;;;18.20;16.40;;;;;;;11.02;100.00;97438.19;5006890;28;20311;-52
2022/04/15 00:55:45;;;;;;;20.60;18.30;;;;;;;11.00;100.00;97439.22;4973417;28;20319;-54
2022/04/15 00:58:15;;;;;;;18.70;17.13;;;;;;;11.07;100.00;97439.31;5005873;28;20632;-54
2022/04/15 01:00:44;;;;;;;19.27;17.47;;;;;;;10.99;100.00;97448.16;4989257;28;20219;-55
2022/04/15 01:03:17;;;;;;;20.10;18.20;;;;;;;10.97;100.00;97441.38;5008694;28;20538;-54
2022/04/15 01:05:46;;;;;;;18.37;16.67;;;;;;;10.97;100.00;97431.63;5006508;28;20308;-55
2022/04/15 01:08:16;;;;;;;20.23;18.47;;;;;;;10.99;100.00;97428.81;5003747;28;20331;-52
2022/04/15 01:10:45;;;;;;;21.03;19.10;;;;;;;11.02;100.00;97430.25;4969464;28;20213;-54
2022/04/15 01:13:15;;;;;;;19.77;17.90;;;;;;;10.99;100.00;97431.44;5005323;28;20297;-53
2022/04/15 01:15:52;;;;;;;20.90;19.00;;;;;;;10.97;100.00;97430.78;4985787;28;20218;-52
2022/04/15 01:18:20;;;;;;;19.87;18.07;;;;;;;10.94;100.00;97434.63;5004521;28;20242;-57
2022/04/15 01:20:50;;;;;;;20.27;18.13;;;;;;;10.95;100.00;97438.09;4984478;28;20786;-56
2022/04/15 01:23:20;;;;;;;20.40;18.40;;;;;;;10.93;100.00;97429.50;5001342;28;20711;-57
2022/04/15 01:25:49;;;;;;;21.27;19.10;;;;;;;10.92;100.00;97434.00;4958844;28;20236;-58
2022/04/15 01:28:19;;;;;;;21.07;19.17;;;;;;;10.88;100.00;97439.81;5006959;28;20204;-53
2022/04/15 01:30:49;;;;;;;22.97;20.67;;;;;;;10.89;100.00;97447.59;4977972;28;20694;-56
2022/04/15 01:33:17;;;;;;;20.63;18.40;;;;;;;10.88;100.00;97437.16;5004629;28;20226;-57
2022/04/15 01:35:49;;;;;;;22.17;19.87;;;;;;;10.95;100.00;97446.03;5000259;28;20204;-56
2022/04/15 01:38:19;;;;;;;19.70;17.93;;;;;;;10.96;100.00;97447.69;5004718;28;20537;-53
2022/04/15 01:40:48;;;;;;;22.03;19.83;;;;;;;10.88;100.00;97439.81;4970482;28;20295;-60
2022/04/15 01:43:16;;;;;;;20.47;18.57;;;;;;;10.88;100.00;97445.13;5007498;28;20223;-58
2022/04/15 01:45:44;;;;;;;21.90;19.90;;;;;;;10.80;100.00;97446.84;4976608;28;20266;-54
2022/04/15 01:48:12;;;;;;;20.20;18.20;;;;;;;10.79;100.00;97454.97;5010769;28;20209;-59
2022/04/15 01:50:40;;;;;;;20.53;18.53;;;;;;;10.80;100.00;97461.94;5003690;28;20287;-55
2022/04/15 01:53:08;;;;;;;20.83;18.70;;;;;;;10.77;100.00;97460.47;5006348;28;20517;-59
2022/04/15 01:55:38;;;;;;;21.33;19.17;;;;;;;10.75;100.00;97453.66;5007879;28;20208;-55
2022/04/15 01:58:06;;;;;;;20.40;18.40;;;;;;;10.78;100.00;97451.50;4965815;28;20523;-56
2022/04/15 02:00:37;;;;;;;19.77;17.87;;;;;;;10.75;100.00;97458.97;5004914;28;20294;-54
2022/04/15 02:03:06;;;;;;;18.87;17.17;;;;;;;10.78;100.00;97459.44;4957987;28;20239;-58
2022/04/15 02:05:34;;;;;;;20.97;18.73;;;;;;;10.72;100.00;97457.53;5006429;28;20200;-56
2022/04/15 02:08:02;;;;;;;20.20;18.07;;;;;;;10.65;100.00;97457.41;5000953;28;20880;-58
2022/04/15 02:10:31;;;;;;;19.70;17.73;;;;;;;10.55;100.00;97454.97;5008382;28;20209;-55
2022/04/15 02:13:00;;;;;;;19.73;17.70;;;;;;;10.44;100.00;97454.59;4965655;28;21536;-58
2022/04/15 02:15:29;;;;;;;19.50;17.57;;;;;;;10.34;100.00;97460.88;5004784;28;20596;-54
2022/04/15 02:17:57;;;;;;;20.23;18.33;;;;;;;10.38;100.00;97456.88;4973772;28;20382;-59
2022/04/15 02:20:25;;;;;;;20.30;18.13;;;;;;;10.32;100.00;97459.44;5005379;28;20694;-53
2022/04/15 02:22:54;;;;;;;20.23;17.97;;;;;;;10.23;100.00;97450.72;5006345;28;20441;-58
2022/04/15 02:25:22;;;;;;;19.87;17.87;;;;;;;10.13;100.00;97454.41;5008370;28;20204;-57
2022/04/15 02:27:50;;;;;;;20.03;17.93;;;;;;;10.05;100.00;97457.13;5009166;28;20808;-56
2022/04/15 02:30:19;;;;;;;21.70;19.50;;;;;;;9.99;100.00;97463.91;4967063;28;20235;-58
2022/04/15 02:32:48;;;;;;;19.57;17.47;;;;;;;9.92;100.00;97470.06;4973399;28;20240;-58
2022/04/15 02:35:15;;;;;;;20.53;18.53;;;;;;;9.89;100.00;97470.41;5004006;28;20584;-57
2022/04/15 02:37:43;;;;;;;19.70;17.70;;;;;;;9.78;100.00;97475.09;5005539;28;20406;-58
2022/04/15 02:40:12;;;;;;;20.80;18.80;;;;;;;9.70;100.00;97468.00;5003569;28;20218;-56
2022/04/15 02:42:40;;;;;;;20.90;18.73;;;;;;;9.61;100.00;97471.69;5008417;28;20231;-54
2022/04/15 02:45:09;;;;;;;21.77;19.67;;;;;;;9.54;100.00;97478.66;4964528;28;20227;-57
2022/04/15 02:47:40;;;;;;;22.00;19.57;;;;;;;9.51;100.00;97482.44;4983168;28;20220;-56
2022/04/15 02:50:08;;;;;;;21.97;19.60;;;;;;;9.50;100.00;97483.44;5003831;28;20296;-58
2022/04/15 02:52:36;;;;;;;22.37;20.07;;;;;;;9.40;100.00;97466.97;5001229;28;20309;-53
2022/04/15 02:55:05;;;;;;;21.73;18.00;;;;;;;9.47;100.00;97475.84;5007804;28;20232;-57
2022/04/15 02:57:33;;;;;;;21.80;19.50;;;;;;;9.60;100.00;97483.25;5007277;28;20231;-53
2022/04/15 03:00:02;;;;;;;20.13;18.03;;;;;;;9.65;100.00;97482.72;5000578;28;20205;-57
2022/04/15 03:02:32;;;;;;;19.97;17.97;;;;;;;9.65;100.00;97472.16;4960779;28;20318;-53
2022/04/15 03:05:03;;;;;;;22.40;20.17;;;;;;;9.67;100.00;97478.94;4986474;28;20209;-56
2022/04/15 03:07:31;;;;;;;22.53;19.60;;;;;;;9.51;100.00;97465.78;5002319;28;22710;-52
2022/04/15 03:09:59;;;;;;;20.27;18.33;;;;;;;9.43;100.00;97469.25;5003955;28;20208;-57
2022/04/15 03:12:27;;;;;;;21.87;19.53;;;;;;;9.29;100.00;97475.25;5005916;28;20220;-54
2022/04/15 03:14:55;;;;;;;21.43;19.30;;;;;;;9.22;100.00;97478.53;5000366;28;20220;-57
2022/04/15 03:17:23;;;;;;;21.20;18.97;;;;;;;9.12;100.00;97483.19;4960335;28;20721;-55
2022/04/15 03:19:51;;;;;;;19.83;17.83;;;;;;;9.09;100.00;97492.31;4967074;28;20765;-54
2022/04/15 03:22:21;;;;;;;20.13;18.00;;;;;;;9.09;100.00;97489.66;5000888;28;20859;-52
2022/04/15 03:24:51;;;;;;;22.13;19.07;;;;;;;9.18;100.00;97487.81;5005951;28;20286;-53
2022/04/15 03:27:19;;;;;;;21.07;18.60;;;;;;;9.29;100.00;97497.22;5003134;28;20224;-52
2022/04/15 03:29:47;;;;;;;22.90;20.50;;;;;;;9.42;100.00;97494.06;5006023;28;20609;-54
2022/04/15 03:32:15;;;;;;;22.90;20.50;;;;;;;9.52;100.00;97502.63;4961715;28;20243;-53
2022/04/15 03:34:43;;;;;;;22.13;19.63;;;;;;;9.60;100.00;97500.94;4975458;28;20849;-56
2022/04/15 03:37:11;;;;;;;23.00;20.60;;;;;;;9.56;100.00;97495.19;5008261;28;20297;-54
2022/04/15 03:39:40;;;;;;;21.13;18.90;;;;;;;9.54;100.00;97505.91;5004941;28;20992;-51
2022/04/15 03:42:09;;;;;;;24.97;22.00;;;;;;;9.59;100.00;97504.59;5003005;28;20201;-53
2022/04/15 03:44:38;;;;;;;22.77;20.43;;;;;;;9.62;100.00;97513.00;5004261;28;20783;-50
2022/04/15 03:47:06;;;;;;;23.07;20.67;;;;;;;9.65;100.00;97503.91;5004921;28;20528;-56
2022/04/15 03:49:35;;;;;;;22.87;20.37;;;;;;;9.69;100.00;97513.97;4935399;28;20481;-54
2022/04/15 03:52:04;;;;;;;24.03;21.53;;;;;;;9.70;100.00;97514.81;5001833;28;20512;-56
2022/04/15 03:54:32;;;;;;;23.70;20.70;;;;;;;9.79;100.00;97515.59;5002862;28;20201;-55
2022/04/15 03:57:01;;;;;;;27.97;22.37;;;;;;;9.84;100.00;97524.69;5007025;28;20283;-57
2022/04/15 03:59:29;;;;;;;23.10;20.70;;;;;;;9.90;100.00;97527.63;5006290;28;20507;-54
2022/04/15 04:01:57;;;;;;;24.43;21.93;;;;;;;9.96;100.00;97530.44;5010013;28;20200;-59
2022/04/15 04:04:26;;;;;;;23.33;20.93;;;;;;;9.90;100.00;97519.69;4935414;28;20228;-55
2022/04/15 04:06:54;;;;;;;23.87;21.00;;;;;;;9.95;100.00;97527.94;5010958;28;20241;-53
2022/04/15 04:09:22;;;;;;;25.20;20.80;;;;;;;9.87;100.00;97517.41;5003980;28;20855;-55
2022/04/15 04:11:50;;;;;;;27.20;21.00;;;;;;;9.75;100.00;97525.72;5006608;28;21127;-54
2022/04/15 04:14:20;;;;;;;23.23;20.83;;;;;;;9.60;100.00;97524.75;5000436;28;20287;-55
2022/04/15 04:16:48;;;;;;;20.83;18.63;;;;;;;9.47;100.00;97523.47;5008014;28;20309;-55
2022/04/15 04:19:16;;;;;;;24.93;20.40;;;;;;;9.42;100.00;97520.50;4973255;28;20216;-54
2022/04/15 04:21:44;;;;;;;22.50;20.17;;;;;;;9.35;100.00;97522.97;4985583;28;20258;-54
2022/04/15 04:24:12;;;;;;;22.03;19.67;;;;;;;9.30;100.00;97524.50;5007502;28;20348;-54
2022/04/15 04:26:40;;;;;;;22.87;20.37;;;;;;;9.22;100.00;97517.41;5003324;28;20295;-56
2022/04/15 04:29:08;;;;;;;25.47;21.10;;;;;;;9.16;100.00;97524.16;4993687;28;20245;-51
2022/04/15 04:31:40;;;;;;;24.23;21.03;;;;;;;9.12;100.00;97518.41;5024773;28;20227;-54
2022/04/15 04:34:08;;;;;;;24.90;20.67;;;;;;;9.16;100.00;97524.16;4986555;28;20793;-56
2022/04/15 04:36:36;;;;;;;22.13;19.60;;;;;;;9.09;100.00;97521.38;4999764;28;20757;-54
2022/04/15 04:39:08;;;;;;;25.77;21.63;;;;;;;9.10;100.00;97530.13;5021007;28;20403;-54
2022/04/15 04:41:37;;;;;;;24.50;21.90;;;;;;;9.03;100.00;97537.88;5024225;28;20649;-57
2022/04/15 04:44:05;;;;;;;25.43;21.47;;;;;;;8.96;100.00;97536.88;5020604;28;20250;-54
2022/04/15 04:46:34;;;;;;;24.77;20.87;;;;;;;8.92;100.00;97541.69;5023409;28;20641;-56
2022/04/15 04:49:03;;;;;;;24.67;22.17;;;;;;;8.83;100.00;97550.59;4985654;28;21209;-54
2022/04/15 04:51:31;;;;;;;25.90;21.90;;;;;;;8.72;100.00;97543.81;5024641;28;20230;-55
2022/04/15 04:53:59;;;;;;;31.30;23.70;;;;;;;8.76;100.00;97553.06;5000623;28;20315;-55
2022/04/15 04:56:28;;;;;;;25.43;22.07;;;;;;;8.72;100.00;97554.41;5023130;28;20211;-54
2022/04/15 04:58:56;;;;;;;27.13;22.13;;;;;;;8.66;100.00;97553.22;5019680;28;20760;-55
2022/04/15 05:01:24;;;;;;;27.07;22.23;;;;;;;8.64;100.00;97555.19;4999987;28;20939;-55
2022/04/15 05:03:52;;;;;;;23.77;19.93;;;;;;;8.62;100.00;97562.47;5027458;28;20313;-57
2022/04/15 05:06:21;;;;;;;25.67;20.43;;;;;;;8.62;100.00;97562.47;4964189;28;21077;-59
2022/04/15 05:08:50;;;;;;;25.77;22.17;;;;;;;8.63;100.00;97555.34;4997278;28;20228;-61
2022/04/15 05:11:18;;;;;;;24.90;22.13;;;;;;;8.65;100.00;97564.78;5017758;28;20206;-61
2022/04/15 05:13:46;;;;;;;25.60;20.67;;;;;;;8.68;100.00;97564.44;5031272;28;20219;-57
2022/04/15 05:16:15;;;;;;;27.37;23.17;;;;;;;8.73;100.00;97563.13;5026874;28;22609;-57
2022/04/15 05:18:43;;;;;;;30.00;22.60;;;;;;;8.77;100.00;97572.38;5032908;28;20684;-60
2022/04/15 05:21:11;;;;;;;25.87;21.70;;;;;;;8.85;100.00;97571.56;4973587;28;20298;-57
2022/04/15 05:23:41;;;;;;;24.73;21.93;;;;;;;8.96;100.00;97582.66;5003455;28;20227;-58
2022/04/15 05:26:09;;;;;;;28.13;21.57;;;;;;;9.08;100.00;97577.03;5024548;28;20648;-55
2022/04/15 05:28:37;;;;;;;28.30;22.50;;;;;;;9.08;100.00;97558.53;5026021;28;20239;-55
2022/04/15 05:31:05;;;;;;;27.30;22.57;;;;;;;9.24;100.00;97578.88;5023132;28;20206;-57
2022/04/15 05:33:33;;;;;;;26.80;22.70;;;;;;;9.30;100.00;97580.84;5026502;28;20436;-59
2022/04/15 05:36:01;;;;;;;28.17;22.30;;;;;;;9.37;100.00;97578.38;4991887;28;20295;-57
2022/04/15 05:38:29;;;;;;;28.33;22.43;;;;;;;9.46;100.00;97579.16;4983357;28;20200;-57
2022/04/15 05:40:58;;;;;;;26.97;21.73;;;;;;;9.49;100.00;97584.97;4974718;28;20227;-56
2022/04/15 05:43:26;;;;;;;26.37;21.53;;;;;;;9.62;100.00;97589.75;5003703;28;20338;-59
2022/04/15 05:45:55;;;;;;;27.30;21.83;;;;;;;9.71;100.00;97595.84;4989823;28;20211;-57
2022/04/15 05:48:23;;;;;;;24.70;20.50;;;;;;;9.87;100.00;97594.16;5012116;28;20302;-57
2022/04/15 05:50:51;;;;;;;22.90;19.23;;;;;;;10.17;100.00;97584.63;4981398;28;20590;-57
2022/04/15 05:53:19;;;;;;;24.60;20.57;;;;;;;10.21;100.00;97582.47;5006865;28;20235;-55
2022/04/15 05:55:47;;;;;;;21.67;19.37;;;;;;;10.34;100.00;97584.56;5004682;28;20399;-58
2022/04/15 05:58:16;;;;;;;21.70;19.37;;;;;;;10.42;100.00;97584.56;5028863;28;20223;-59
2022/04/15 06:00:44;;;;;;;36.70;28.90;;;;;;;10.59;100.00;97582.66;4988863;28;20303;-57
2022/04/15 06:03:12;;;;;;;22.37;20.03;;;;;;;10.76;100.00;97585.19;5001002;28;20811;-57
2022/04/15 06:05:40;;;;;;;21.30;19.10;;;;;;;10.76;100.00;97583.38;5023798;28;20275;-55
2022/04/15 06:08:09;;;;;;;20.40;18.20;;;;;;;10.80;100.00;97583.88;4970494;28;20261;-60
2022/04/15 06:10:37;;;;;;;23.83;18.43;;;;;;;10.95;100.00;97590.03;5006299;28;20262;-54
2022/04/15 06:13:09;;;;;;;22.03;18.47;;;;;;;11.11;100.00;97585.63;4999406;28;20662;-55
2022/04/15 06:15:41;;;;;;;20.93;18.57;;;;;;;11.06;100.00;97585.31;4994291;28;20211;-58
2022/04/15 06:18:09;;;;;;;20.80;18.20;;;;;;;11.07;100.00;97593.13;4990591;28;20219;-57
2022/04/15 06:20:41;;;;;;;21.87;19.57;;;;;;;11.37;100.00;97589.72;5006146;28;20212;-54
2022/04/15 06:23:09;;;;;;;18.07;16.17;;;;;;;11.37;100.00;97589.72;4983423;28;20733;-60
2022/04/15 06:25:37;;;;;;;19.67;17.67;;;;;;;11.40;100.00;97592.03;4986792;28;20306;-57
2022/04/15 06:28:08;;;;;;;18.67;16.77;;;;;;;11.67;100.00;97598.56;5025870;28;20219;-60
2022/04/15 06:30:38;;;;;;;19.37;17.17;;;;;;;11.74;100.00;97588.06;5019154;28;20804;-58
2022/04/15 06:33:08;;;;;;;18.67;16.77;;;;;;;11.96;100.00;97599.59;5002330;28;20777;-60
2022/04/15 06:35:37;;;;;;;18.53;16.60;;;;;;;12.09;100.00;97606.13;4995418;28;20294;-57
2022/04/15 06:38:05;;;;;;;19.17;17.07;;;;;;;12.18;100.00;97607.72;4990927;28;20699;-60
2022/04/15 06:40:34;;;;;;;19.13;17.13;;;;;;;12.22;100.00;97618.78;4989655;28;20700;-57
2022/04/15 06:43:02;;;;;;;20.43;18.53;;;;;;;11.94;100.00;97617.56;5021655;28;20826;-61
2022/04/15 06:45:30;;;;;;;19.50;17.60;;;;;;;11.95;100.00;97613.91;5021375;28;20285;-57
2022/04/15 06:47:59;;;;;;;19.93;17.83;;;;;;;11.99;100.00;97612.53;4984516;28;20821;-62
2022/04/15 06:50:30;;;;;;;18.30;16.60;;;;;;;11.88;100.00;97613.78;5007634;28;20585;-59
2022/04/15 06:53:01;;;;;;;16.83;15.23;;;;;;;12.06;100.00;97615.31;4949421;28;20991;-56
2022/04/15 06:55:29;;;;;;;19.35;17.55;;;;;;;12.18;100.00;97610.38;5007946;28;20543;-58
2022/04/15 06:57:58;;;;;;;17.83;15.93;;;;;;;12.40;100.00;97613.94;4988133;28;20301;-58
2022/04/15 07:00:26;;;;;;;17.47;15.70;;;;;;;12.39;100.00;97614.94;5001410;28;20581;-59
2022/04/15 07:02:54;;;;;;;17.40;14.70;;;;;;;12.12;100.00;97614.56;4973630;28;20247;-61
2022/04/15 07:05:25;;;;;;;17.07;15.33;;;;;;;11.93;100.00;97610.59;4994409;28;20235;-62
2022/04/15 07:07:53;;;;;;;17.50;15.80;;;;;;;11.97;100.00;97611.06;5001059;28;20624;-58
2022/04/15 07:10:21;;;;;;;17.43;15.73;;;;;;;11.69;100.00;97612.47;4949691;28;20229;-61
2022/04/15 07:12:49;;;;;;;17.67;15.83;;;;;;;12.08;100.00;97610.63;4983554;28;20944;-61
2022/04/15 07:15:17;;;;;;;16.60;14.90;;;;;;;12.42;100.00;97614.56;5007453;28;20755;-59
2022/04/15 07:17:45;;;;;;;16.27;14.67;;;;;;;12.82;100.00;97613.38;4972928;28;20812;-56
2022/04/15 07:20:13;;;;;;;16.27;14.70;;;;;;;13.08;100.00;97596.06;4973888;28;21027;-60
2022/04/15 07:22:43;;;;;;;17.57;15.87;;;;;;;13.46;100.00;97603.81;5000160;28;20311;-58
2022/04/15 07:25:11;;;;;;;17.87;15.97;;;;;;;13.60;100.00;97604.72;4963246;28;20665;-60
2022/04/15 07:27:39;;;;;;;17.97;16.20;;;;;;;13.72;100.00;97613.00;4964867;28;20793;-56
2022/04/15 07:30:08;;;;;;;16.50;15.00;;;;;;;13.88;100.00;97611.88;5012439;28;20494;-59
2022/04/15 07:32:36;;;;;;;16.67;14.97;;;;;;;13.77;100.00;97612.44;5003199;28;20725;-57
2022/04/15 07:35:05;;;;;;;16.60;14.20;;;;;;;13.95;100.00;97614.59;4976178;28;20342;-58
2022/04/15 07:37:33;;;;;;;15.87;14.27;;;;;;;13.67;100.00;97607.44;5007607;28;20455;-59
2022/04/15 07:40:03;;;;;;;14.60;13.30;;;;;;;13.34;100.00;97611.44;4969533;28;20560;-58
2022/04/15 07:42:31;;;;;;;15.90;13.63;;;;;;;13.54;100.00;97621.47;4998250;28;20347;-51
2022/04/15 07:44:59;;;;;;;15.80;14.33;;;;;;;13.91;100.00;97616.00;4994960;28;20489;-59
2022/04/15 07:47:28;;;;;;;14.80;13.40;;;;;;;14.07;100.00;97612.22;5003436;28;20292;-55
2022/04/15 07:50:16;;;;;;;14.87;13.43;;;;;;;14.23;100.00;97613.75;4972791;28;20224;-52
2022/04/15 07:52:44;;;;;;;13.60;12.30;;;;;;;14.43;100.00;97622.66;4986776;28;20331;-58
2022/04/15 07:55:13;;;;;;;14.83;13.33;;;;;;;14.46;100.00;97608.13;4963195;28;20245;-55
2022/04/15 07:57:41;;;;;;;14.60;13.20;;;;;;;14.52;100.00;97609.97;4972513;28;20212;-58
2022/04/15 08:00:10;;;;;;;16.30;14.77;;;;;;;14.35;100.00;97600.66;4984706;28;20213;-54
2022/04/15 08:02:38;;;;;;;15.45;13.95;;;;;;;14.51;100.00;97605.66;5005790;28;20465;-55
2022/04/15 08:05:07;;;;;;;14.93;13.17;;;;;;;14.54;100.00;97607.94;5003460;28;20208;-55
2022/04/15 08:07:35;;;;;;;13.37;12.03;;;;;;;14.70;100.00;97611.25;4983504;28;20770;-54
2022/04/15 08:10:03;;;;;;;13.33;12.13;;;;;;;15.04;100.00;97609.53;4969275;28;20225;-54
2022/04/15 08:12:33;;;;;;;12.47;11.37;;;;;;;14.98;100.00;97613.88;4970842;28;20946;-54
2022/04/15 08:15:01;;;;;;;12.60;11.50;;;;;;;14.87;100.00;97604.59;4988512;28;20650;-52
2022/04/15 08:17:29;;;;;;;13.27;12.07;;;;;;;15.19;100.00;97609.38;5005521;28;20298;-54
2022/04/15 08:19:58;;;;;;;11.80;10.80;;;;;;;15.14;100.00;97604.63;5006185;28;20212;-55
2022/04/15 08:22:27;;;;;;;11.87;10.77;;;;;;;15.25;100.00;97613.88;4988746;28;20251;-56
2022/04/15 08:24:55;;;;;;;12.20;11.00;;;;;;;15.22;100.00;97616.97;4965245;28;20215;-56
2022/04/15 08:27:25;;;;;;;12.50;11.30;;;;;;;15.40;100.00;97608.38;4984106;28;20207;-56
2022/04/15 08:29:55;;;;;;;11.87;10.87;;;;;;;15.50;100.00;97613.31;4986344;28;20243;-58
2022/04/15 08:32:23;;;;;;;12.63;11.33;;;;;;;15.46;100.00;97612.06;4987878;28;20228;-55
2022/04/15 08:34:51;;;;;;;12.80;11.50;;;;;;;15.49;100.00;97601.78;5008067;28;20453;-57
2022/04/15 08:37:19;;;;;;;12.97;11.67;;;;;;;15.61;100.00;97609.19;4981593;28;20511;-56
2022/04/15 08:39:47;;;;;;;12.23;11.13;;;;;;;15.84;100.00;97607.94;5005315;28;20307;-58
2022/04/15 08:42:15;;;;;;;10.53;9.40;;;;;;;16.29;100.00;97617.97;4950735;28;20567;-51
2022/04/15 08:44:44;;;;;;;11.30;10.30;;;;;;;16.13;100.00;97617.41;4990786;28;20640;-55
2022/04/15 08:47:14;;;;;;;10.37;9.47;;;;;;;16.42;100.00;97604.53;4983542;28;20209;-56
2022/04/15 08:49:42;;;;;;;11.07;10.13;;;;;;;16.76;100.00;97612.44;5004619;28;20307;-56
2022/04/15 08:52:11;;;;;;;9.87;8.97;;;;;;;16.99;100.00;97606.59;4990290;28;20272;-58
2022/04/15 08:54:39;;;;;;;10.87;9.77;;;;;;;17.10;100.00;97614.97;4992373;28;20333;-54
2022/04/15 08:57:07;;;;;;;11.70;10.57;;;;;;;17.12;100.00;97613.72;4944984;28;20359;-54
2022/04/15 08:59:35;;;;;;;12.20;10.93;;;;;;;16.88;100.00;97610.72;4975590;28;20221;-55
2022/04/15 09:02:04;;;;;;;10.37;9.50;;;;;;;17.35;100.00;97602.44;4975558;28;20205;-53
2022/04/15 09:04:34;;;;;;;11.00;10.07;;;;;;;16.89;100.00;97604.34;4992789;28;20208;-55
2022/04/15 09:07:02;;;;;;;10.23;9.33;;;;;;;17.26;100.00;97602.91;5002262;28;20209;-54
2022/04/15 09:09:31;;;;;;;11.03;10.03;;;;;;;16.86;100.00;97602.09;4992097;28;20295;-51
2022/04/15 09:12:00;;;;;;;10.70;9.90;;;;;;;17.31;100.00;97597.72;4969041;28;20296;-55
2022/04/15 09:14:28;;;;;;;12.40;11.30;;;;;;;17.14;100.00;97597.44;4974523;28;20231;-54
2022/04/15 09:16:56;;;;;;;11.97;10.70;;;;;;;16.99;100.00;97598.56;5000513;28;20286;-55
2022/04/15 09:19:25;;;;;;;10.43;9.53;;;;;;;16.71;100.00;97602.38;4980375;28;20208;-52
2022/04/15 09:21:55;;;;;;;10.03;9.23;;;;;;;17.01;100.00;97604.50;5006116;28;20684;-56
2022/04/15 09:24:27;;;;;;;11.30;10.27;;;;;;;16.61;100.00;97602.00;4986747;28;21411;-57
2022/04/15 09:26:55;;;;;;;10.50;9.43;;;;;;;17.00;100.00;97610.91;4974031;28;20204;-57
2022/04/15 09:29:26;;;;;;;12.53;11.23;;;;;;;16.67;100.00;97601.16;4987311;28;20224;-53
2022/04/15 09:31:55;;;;;;;9.43;8.57;;;;;;;16.70;100.00;97605.28;4983269;28;20212;-57
2022/04/15 09:34:23;;;;;;;10.10;9.20;;;;;;;16.57;100.00;97598.94;4978548;28;20250;-56
2022/04/15 09:36:51;;;;;;;9.53;8.73;;;;;;;17.07;100.00;97595.63;5003447;28;20228;-57
2022/04/15 09:39:21;;;;;;;9.13;8.43;;;;;;;17.32;100.00;97594.84;4990375;28;20204;-56
2022/04/15 09:41:54;;;;;;;9.97;8.93;;;;;;;17.38;100.00;97582.41;4975411;28;20298;-56
2022/04/15 09:44:31;;;;;;;10.03;9.10;;;;;;;17.72;100.00;97595.56;4980640;28;20231;-54
2022/04/15 09:47:04;;;;;;;9.73;9.03;;;;;;;17.99;100.00;97588.06;4992631;28;20219;-56
2022/04/15 09:49:34;;;;;;;10.23;9.33;;;;;;;17.92;100.00;97593.47;4963341;28;20303;-57
2022/04/15 09:52:03;;;;;;;9.47;8.67;;;;;;;17.92;100.00;97590.00;4991778;28;20205;-51
2022/04/15 09:54:36;;;;;;;10.00;9.10;;;;;;;17.73;100.00;97589.16;4977649;28;20258;-56
2022/04/15 09:57:05;;;;;;;10.93;9.73;;;;;;;17.34;100.00;97587.41;4971708;28;20225;-54
2022/04/15 09:59:33;;;;;;;8.30;7.50;;;;;;;17.59;100.00;97593.81;5005158;28;20254;-55
2022/04/15 10:02:03;;;;;;;10.03;9.07;;;;;;;17.10;100.00;97582.84;4982868;28;20336;-56
2022/04/15 10:04:31;;;;;;;8.07;7.37;;;;;;;17.04;100.00;97582.66;4989418;28;20228;-55
2022/04/15 10:07:05;;;;;;;8.47;7.80;;;;;;;17.14;94.88;97576.00;4985764;28;20202;-50
2022/04/15 10:09:36;;;;;;;9.33;8.53;;;;;;;17.73;86.07;97578.44;5002453;28;20207;-56
2022/04/15 10:12:06;;;;;;;9.53;8.63;;;;;;;17.63;69.80;97579.75;4960299;28;20231;-54
2022/04/15 10:14:35;;;;;;;8.20;7.50;;;;;;;17.99;79.03;97579.19;5002386;28;20255;-57
2022/04/15 10:17:04;;;;;;;9.90;9.10;;;;;;;17.50;77.14;97574.50;4991148;28;20201;-54
2022/04/15 10:19:33;;;;;;;9.33;8.53;;;;;;;17.05;86.94;97575.47;4988639;28;20227;-56
2022/04/15 10:22:01;;;;;;;9.17;8.27;;;;;;;16.59;92.03;97582.69;4988276;28;20479;-55
2022/04/15 10:24:30;;;;;;;8.80;8.10;;;;;;;16.16;91.15;97587.56;5007650;28;20258;-56
2022/04/15 10:27:00;;;;;;;7.57;7.00;;;;;;;16.12;90.62;97577.50;4986810;28;20230;-56
2022/04/15 10:29:28;;;;;;;7.97;7.33;;;;;;;16.58;88.54;97584.53;4964194;28;20322;-56
2022/04/15 10:31:57;;;;;;;8.27;7.60;;;;;;;16.94;82.25;97571.59;4981553;28;22662;-56
2022/04/15 10:34:25;;;;;;;8.53;7.73;;;;;;;17.34;74.88;97565.97;5001087;28;20271;-54
2022/04/15 10:36:55;;;;;;;8.23;7.53;;;;;;;18.08;69.97;97568.00;4988071;28;20205;-54
2022/04/15 10:39:26;;;;;;;8.03;7.43;;;;;;;17.91;66.24;97564.25;5002710;28;20615;-56
2022/04/15 10:42:05;;;;;;;7.40;6.73;;;;;;;17.64;67.59;97559.13;4987729;28;20578;-54
2022/04/15 10:44:36;;;;;;;7.50;6.90;;;;;;;16.88;77.96;97564.44;4964471;28;20208;-52
2022/04/15 10:47:06;;;;;;;7.27;6.53;;;;;;;16.69;78.33;97574.22;5004543;28;20208;-56
2022/04/15 10:49:35;;;;;;;7.20;6.50;;;;;;;16.69;74.69;97560.81;4987280;28;20218;-55
2022/04/15 10:52:16;;;;;;;6.97;6.27;;;;;;;17.21;75.74;97564.22;5002683;28;20224;-57
2022/04/15 10:54:46;;;;;;;6.03;5.63;;;;;;;17.42;67.82;97564.88;4977073;28;20627;-55
2022/04/15 10:57:17;;;;;;;6.90;6.10;;;;;;;17.33;60.08;97559.00;4988764;28;20209;-56
2022/04/15 11:02:40;;;;;;;5.97;5.57;;;;;;;16.88;57.20;97554.53;5000192;28;20587;-54
2022/04/15 11:05:11;;;;;;;5.50;4.97;;;;;;;17.01;54.62;97552.81;4990823;28;20235;-55
2022/04/15 11:07:45;;;;;;;5.03;4.67;;;;;;;17.56;53.52;97552.19;5001337;28;20572;-56
2022/04/15 11:10:19;;;;;;;5.30;4.90;;;;;;;18.19;50.94;97550.34;4973539;28;21124;-58
2022/04/15 11:12:48;;;;;;;6.10;5.60;;;;;;;18.35;61.72;97554.28;4984694;28;20550;-55
2022/04/15 11:15:55;;;;;;;6.13;5.63;;;;;;;17.91;60.13;97553.53;4971773;28;20216;-54
2022/04/15 11:18:24;;;;;;;5.70;5.20;;;;;;;17.59;60.05;97551.75;5005800;28;20564;-56
2022/04/15 11:20:52;;;;;;;5.93;5.40;;;;;;;17.96;57.02;97553.66;5008442;28;20236;-60
2022/04/15 11:23:20;;;;;;;5.93;5.37;;;;;;;18.14;59.52;97552.88;5006396;28;20534;-58
2022/04/15 11:25:48;;;;;;;5.40;4.90;;;;;;;17.74;54.90;97547.91;4980585;28;20840;-61